Pagina principale
METAR-TAF:

METAR-TAF

Aeroporti :

Istres, Francia

latitudine: 43-31N, longitudine: 004-56E, altezza: 23 m

Osservazione

Il bollettino è stato emesso 13 minuti fa, alle 19:30 UTC
Vento 10 kt da sud-est
Temperature 13°C
Umidità 82%
Pressione 1027 hPa
Visibilità 10 km o più
Poco nuvoloso ad un'altezza di 1500 ft
Nuvoloso ad un'altezza di 3800 ft
Cielo coperto ad un'altezza di 4500 ft

METAR: LFMI 161930Z AUTO 14010KT 9999 FEW015 BKN038 OVC045 13/10 Q1027 TEMPO OVC010

Ora: 20:43 (19:43 UTC)

Previsione

Il bollettino è stato emesso 5 ore e 43 minuti fa, alle 14:00 UTC
Previsione valida dal 16 alle 15 UTC al 17 alle 15 UTC
Vento 10 kt da est/sud-est
Visibilità 10 km o più
Nuvoloso ad un'altezza di 2000 ft
Cielo coperto ad un'altezza di 3000 ft
Temporaneamente
dal 16 alle 15 UTC al 17 alle 15 UTC
Cielo coperto ad un'altezza di 1000 ft
pioggia debole

TAF: LFMI 161400Z 1615/1715 11010KT 9999 BKN020 OVC030 TEMPO 1615/1715 -RA OVC010

Osservazioni e previsioni meteorologiche di più di 4000 aeroporti (messaggi METAR e TAF).

Le stazioni disponibili sono rappresentate dai dischi gialli e rossi sulla carta.

Puntare il mouse per vedere il nome della stazione.

Clicca sopra per visualizzare le osservazioni e previsioni meteorologiche.

Per cambiare la mappa : fare clic sui pulsanti verdi con una croce nera per ingrandire, il pulsante verde con un trattino per diminuire, o sulla freccia verde per le mappe adiacenti.


METAR-TAF: